sensor_id;sensor_type;location;lat;lon;timestamp;P1;durP1;ratioP1;P2;durP2;ratioP2
2542;SDS011;1116;51.502;7.414;2023-02-15T00:02:02;21.25;;;15.23;;
2542;SDS011;1116;51.502;7.414;2023-02-15T00:04:42;21.48;;;15.80;;
2542;SDS011;1116;51.502;7.414;2023-02-15T00:07:21;21.50;;;16.63;;
2542;SDS011;1116;51.502;7.414;2023-02-15T00:09:52;29.17;;;18.73;;
2542;SDS011;1116;51.502;7.414;2023-02-15T00:12:23;26.38;;;17.48;;
2542;SDS011;1116;51.502;7.414;2023-02-15T00:14:54;23.10;;;16.17;;
2542;SDS011;1116;51.502;7.414;2023-02-15T00:17:26;21.80;;;15.75;;
2542;SDS011;1116;51.502;7.414;2023-02-15T00:19:57;28.67;;;17.33;;
2542;SDS011;1116;51.502;7.414;2023-02-15T00:22:30;22.13;;;15.30;;
2542;SDS011;1116;51.502;7.414;2023-02-15T00:25:01;25.55;;;17.35;;
2542;SDS011;1116;51.502;7.414;2023-02-15T00:27:32;23.92;;;15.95;;
2542;SDS011;1116;51.502;7.414;2023-02-15T00:30:09;25.77;;;16.83;;
2542;SDS011;1116;51.502;7.414;2023-02-15T00:32:40;24.38;;;15.90;;
2542;SDS011;1116;51.502;7.414;2023-02-15T00:35:13;24.00;;;15.95;;
2542;SDS011;1116;51.502;7.414;2023-02-15T00:37:54;22.05;;;15.30;;
2542;SDS011;1116;51.502;7.414;2023-02-15T00:40:26;23.80;;;16.90;;
2542;SDS011;1116;51.502;7.414;2023-02-15T00:42:57;23.80;;;16.50;;
2542;SDS011;1116;51.502;7.414;2023-02-15T00:45:28;26.40;;;16.65;;
2542;SDS011;1116;51.502;7.414;2023-02-15T00:47:59;27.45;;;18.65;;
2542;SDS011;1116;51.502;7.414;2023-02-15T00:50:30;24.88;;;16.95;;
2542;SDS011;1116;51.502;7.414;2023-02-15T00:53:03;26.02;;;17.17;;
2542;SDS011;1116;51.502;7.414;2023-02-15T00:55:34;24.85;;;17.13;;
2542;SDS011;1116;51.502;7.414;2023-02-15T00:58:07;27.00;;;16.77;;
2542;SDS011;1116;51.502;7.414;2023-02-15T01:00:38;25.08;;;17.23;;
2542;SDS011;1116;51.502;7.414;2023-02-15T01:03:11;22.88;;;16.23;;
2542;SDS011;1116;51.502;7.414;2023-02-15T01:05:43;28.50;;;17.80;;
2542;SDS011;1116;51.502;7.414;2023-02-15T01:08:16;28.70;;;17.95;;
2542;SDS011;1116;51.502;7.414;2023-02-15T01:10:47;26.30;;;16.98;;
2542;SDS011;1116;51.502;7.414;2023-02-15T01:13:18;23.90;;;16.02;;
2542;SDS011;1116;51.502;7.414;2023-02-15T01:15:52;26.92;;;16.85;;
2542;SDS011;1116;51.502;7.414;2023-02-15T01:18:23;22.90;;;17.35;;
2542;SDS011;1116;51.502;7.414;2023-02-15T01:20:57;21.40;;;15.27;;
2542;SDS011;1116;51.502;7.414;2023-02-15T01:23:32;23.73;;;16.80;;
2542;SDS011;1116;51.502;7.414;2023-02-15T01:26:04;24.35;;;17.10;;
2542;SDS011;1116;51.502;7.414;2023-02-15T01:31:14;23.52;;;15.85;;
2542;SDS011;1116;51.502;7.414;2023-02-15T01:33:46;22.25;;;14.90;;
2542;SDS011;1116;51.502;7.414;2023-02-15T01:36:17;28.90;;;17.98;;
2542;SDS011;1116;51.502;7.414;2023-02-15T01:38:51;25.48;;;16.98;;
2542;SDS011;1116;51.502;7.414;2023-02-15T01:41:21;24.65;;;15.90;;
2542;SDS011;1116;51.502;7.414;2023-02-15T01:43:57;23.10;;;15.90;;
2542;SDS011;1116;51.502;7.414;2023-02-15T01:46:35;22.25;;;16.50;;
2542;SDS011;1116;51.502;7.414;2023-02-15T01:49:15;26.25;;;16.70;;
2542;SDS011;1116;51.502;7.414;2023-02-15T01:51:49;24.33;;;17.27;;
2542;SDS011;1116;51.502;7.414;2023-02-15T01:54:25;23.75;;;16.00;;
2542;SDS011;1116;51.502;7.414;2023-02-15T01:56:59;24.15;;;16.48;;
2542;SDS011;1116;51.502;7.414;2023-02-15T01:59:33;27.15;;;16.70;;
2542;SDS011;1116;51.502;7.414;2023-02-15T02:02:16;23.15;;;15.65;;
2542;SDS011;1116;51.502;7.414;2023-02-15T02:04:52;25.90;;;16.38;;
2542;SDS011;1116;51.502;7.414;2023-02-15T02:07:35;27.30;;;17.70;;
2542;SDS011;1116;51.502;7.414;2023-02-15T02:10:13;22.58;;;16.25;;
2542;SDS011;1116;51.502;7.414;2023-02-15T02:12:50;23.02;;;15.77;;
2542;SDS011;1116;51.502;7.414;2023-02-15T02:15:25;24.90;;;17.65;;
2542;SDS011;1116;51.502;7.414;2023-02-15T02:18:07;26.63;;;16.67;;
2542;SDS011;1116;51.502;7.414;2023-02-15T02:20:59;22.35;;;16.60;;
2542;SDS011;1116;51.502;7.414;2023-02-15T02:23:48;28.42;;;18.17;;
2542;SDS011;1116;51.502;7.414;2023-02-15T02:26:43;24.20;;;15.98;;
2542;SDS011;1116;51.502;7.414;2023-02-15T02:29:43;24.63;;;16.27;;
2542;SDS011;1116;51.502;7.414;2023-02-15T02:35:32;23.77;;;16.90;;
2542;SDS011;1116;51.502;7.414;2023-02-15T02:38:10;23.77;;;16.70;;
2542;SDS011;1116;51.502;7.414;2023-02-15T02:40:49;31.30;;;16.98;;
2542;SDS011;1116;51.502;7.414;2023-02-15T02:43:32;26.73;;;17.45;;
2542;SDS011;1116;51.502;7.414;2023-02-15T02:46:06;24.48;;;17.45;;
2542;SDS011;1116;51.502;7.414;2023-02-15T02:48:46;26.30;;;16.55;;
2542;SDS011;1116;51.502;7.414;2023-02-15T02:51:18;29.95;;;19.63;;
2542;SDS011;1116;51.502;7.414;2023-02-15T02:53:51;27.02;;;16.92;;
2542;SDS011;1116;51.502;7.414;2023-02-15T02:56:26;27.20;;;17.73;;
2542;SDS011;1116;51.502;7.414;2023-02-15T02:59:01;29.98;;;17.63;;
2542;SDS011;1116;51.502;7.414;2023-02-15T03:01:39;23.27;;;17.17;;
2542;SDS011;1116;51.502;7.414;2023-02-15T03:04:18;24.08;;;16.95;;
2542;SDS011;1116;51.502;7.414;2023-02-15T03:06:54;23.88;;;16.92;;
2542;SDS011;1116;51.502;7.414;2023-02-15T03:09:28;28.75;;;16.67;;
2542;SDS011;1116;51.502;7.414;2023-02-15T03:12:09;26.33;;;17.17;;
2542;SDS011;1116;51.502;7.414;2023-02-15T03:14:44;25.25;;;17.35;;
2542;SDS011;1116;51.502;7.414;2023-02-15T03:17:20;26.30;;;17.02;;
2542;SDS011;1116;51.502;7.414;2023-02-15T03:19:57;26.92;;;16.90;;
2542;SDS011;1116;51.502;7.414;2023-02-15T03:22:33;27.48;;;17.40;;
2542;SDS011;1116;51.502;7.414;2023-02-15T03:25:08;32.13;;;16.95;;
2542;SDS011;1116;51.502;7.414;2023-02-15T03:27:43;25.80;;;17.13;;
2542;SDS011;1116;51.502;7.414;2023-02-15T03:30:20;29.35;;;17.05;;
2542;SDS011;1116;51.502;7.414;2023-02-15T03:32:52;22.80;;;16.00;;
2542;SDS011;1116;51.502;7.414;2023-02-15T03:35:31;28.00;;;17.95;;
2542;SDS011;1116;51.502;7.414;2023-02-15T03:38:08;27.77;;;17.50;;
2542;SDS011;1116;51.502;7.414;2023-02-15T03:40:43;30.05;;;16.65;;
2542;SDS011;1116;51.502;7.414;2023-02-15T03:43:30;24.92;;;17.33;;
2542;SDS011;1116;51.502;7.414;2023-02-15T03:46:05;26.25;;;17.95;;
2542;SDS011;1116;51.502;7.414;2023-02-15T03:48:40;25.95;;;16.95;;
2542;SDS011;1116;51.502;7.414;2023-02-15T03:51:21;23.17;;;16.00;;
2542;SDS011;1116;51.502;7.414;2023-02-15T03:54:07;25.67;;;17.27;;
2542;SDS011;1116;51.502;7.414;2023-02-15T03:56:40;26.30;;;17.42;;
2542;SDS011;1116;51.502;7.414;2023-02-15T03:59:32;25.25;;;16.63;;
2542;SDS011;1116;51.502;7.414;2023-02-15T04:02:17;25.63;;;16.30;;
2542;SDS011;1116;51.502;7.414;2023-02-15T04:04:52;24.75;;;17.45;;
2542;SDS011;1116;51.502;7.414;2023-02-15T04:07:25;25.25;;;17.70;;
2542;SDS011;1116;51.502;7.414;2023-02-15T04:09:56;25.58;;;16.60;;
2542;SDS011;1116;51.502;7.414;2023-02-15T04:12:42;28.92;;;17.00;;
2542;SDS011;1116;51.502;7.414;2023-02-15T04:15:13;24.95;;;16.75;;
2542;SDS011;1116;51.502;7.414;2023-02-15T04:18:01;25.27;;;18.23;;
2542;SDS011;1116;51.502;7.414;2023-02-15T04:20:33;25.38;;;17.38;;
2542;SDS011;1116;51.502;7.414;2023-02-15T04:23:18;24.45;;;16.92;;
2542;SDS011;1116;51.502;7.414;2023-02-15T04:26:02;26.92;;;18.00;;
2542;SDS011;1116;51.502;7.414;2023-02-15T04:28:33;24.45;;;17.02;;
2542;SDS011;1116;51.502;7.414;2023-02-15T04:31:04;27.08;;;17.85;;
2542;SDS011;1116;51.502;7.414;2023-02-15T04:33:35;23.58;;;15.82;;
2542;SDS011;1116;51.502;7.414;2023-02-15T04:36:11;24.50;;;16.63;;
2542;SDS011;1116;51.502;7.414;2023-02-15T04:38:44;23.58;;;16.83;;
2542;SDS011;1116;51.502;7.414;2023-02-15T04:41:18;24.23;;;17.40;;
2542;SDS011;1116;51.502;7.414;2023-02-15T04:43:49;34.72;;;18.50;;
2542;SDS011;1116;51.502;7.414;2023-02-15T04:46:22;27.20;;;17.98;;
2542;SDS011;1116;51.502;7.414;2023-02-15T04:48:56;28.90;;;17.60;;
2542;SDS011;1116;51.502;7.414;2023-02-15T04:51:27;27.80;;;17.88;;
2542;SDS011;1116;51.502;7.414;2023-02-15T04:54:02;24.48;;;17.27;;
2542;SDS011;1116;51.502;7.414;2023-02-15T04:56:33;28.77;;;17.20;;
2542;SDS011;1116;51.502;7.414;2023-02-15T04:59:05;28.83;;;18.20;;
2542;SDS011;1116;51.502;7.414;2023-02-15T05:01:36;25.60;;;17.45;;
2542;SDS011;1116;51.502;7.414;2023-02-15T05:04:09;31.02;;;18.17;;
2542;SDS011;1116;51.502;7.414;2023-02-15T05:06:41;25.50;;;17.50;;
2542;SDS011;1116;51.502;7.414;2023-02-15T05:09:15;28.85;;;18.20;;
2542;SDS011;1116;51.502;7.414;2023-02-15T05:11:46;25.90;;;17.50;;
2542;SDS011;1116;51.502;7.414;2023-02-15T05:14:19;29.92;;;17.50;;
2542;SDS011;1116;51.502;7.414;2023-02-15T05:16:50;26.90;;;17.23;;
2542;SDS011;1116;51.502;7.414;2023-02-15T05:19:21;29.70;;;17.40;;
2542;SDS011;1116;51.502;7.414;2023-02-15T05:21:53;28.17;;;17.42;;
2542;SDS011;1116;51.502;7.414;2023-02-15T05:24:26;26.00;;;17.23;;
2542;SDS011;1116;51.502;7.414;2023-02-15T05:27:10;28.02;;;17.83;;
2542;SDS011;1116;51.502;7.414;2023-02-15T05:29:53;27.08;;;17.08;;
2542;SDS011;1116;51.502;7.414;2023-02-15T05:32:27;31.85;;;19.30;;
2542;SDS011;1116;51.502;7.414;2023-02-15T05:34:58;29.38;;;18.10;;
2542;SDS011;1116;51.502;7.414;2023-02-15T05:37:29;28.35;;;17.95;;
2542;SDS011;1116;51.502;7.414;2023-02-15T05:40:03;27.98;;;17.45;;
2542;SDS011;1116;51.502;7.414;2023-02-15T05:42:34;27.33;;;17.58;;
2542;SDS011;1116;51.502;7.414;2023-02-15T05:45:06;28.55;;;18.35;;
2542;SDS011;1116;51.502;7.414;2023-02-15T05:47:37;31.63;;;19.55;;
2542;SDS011;1116;51.502;7.414;2023-02-15T05:50:08;34.47;;;20.10;;
2542;SDS011;1116;51.502;7.414;2023-02-15T05:52:43;37.35;;;20.88;;
2542;SDS011;1116;51.502;7.414;2023-02-15T05:55:21;32.20;;;20.88;;
2542;SDS011;1116;51.502;7.414;2023-02-15T05:57:52;34.50;;;22.90;;
2542;SDS011;1116;51.502;7.414;2023-02-15T06:00:23;40.97;;;22.58;;
2542;SDS011;1116;51.502;7.414;2023-02-15T06:02:54;33.65;;;20.65;;
2542;SDS011;1116;51.502;7.414;2023-02-15T06:05:28;35.15;;;21.27;;
2542;SDS011;1116;51.502;7.414;2023-02-15T06:07:59;35.63;;;21.92;;
2542;SDS011;1116;51.502;7.414;2023-02-15T06:10:35;40.83;;;23.20;;
2542;SDS011;1116;51.502;7.414;2023-02-15T06:13:07;30.92;;;20.55;;
2542;SDS011;1116;51.502;7.414;2023-02-15T06:15:38;34.03;;;20.80;;
2542;SDS011;1116;51.502;7.414;2023-02-15T06:18:09;38.22;;;22.02;;
2542;SDS011;1116;51.502;7.414;2023-02-15T06:20:39;32.15;;;21.05;;
2542;SDS011;1116;51.502;7.414;2023-02-15T06:23:10;32.90;;;20.80;;
2542;SDS011;1116;51.502;7.414;2023-02-15T06:25:45;35.45;;;21.85;;
2542;SDS011;1116;51.502;7.414;2023-02-15T06:28:16;33.88;;;20.42;;
2542;SDS011;1116;51.502;7.414;2023-02-15T06:30:47;32.15;;;19.88;;
2542;SDS011;1116;51.502;7.414;2023-02-15T06:33:18;36.78;;;21.20;;
2542;SDS011;1116;51.502;7.414;2023-02-15T06:35:49;34.38;;;21.15;;
2542;SDS011;1116;51.502;7.414;2023-02-15T06:38:20;34.75;;;21.40;;
2542;SDS011;1116;51.502;7.414;2023-02-15T06:40:53;33.35;;;21.40;;
2542;SDS011;1116;51.502;7.414;2023-02-15T06:43:24;39.03;;;22.42;;
2542;SDS011;1116;51.502;7.414;2023-02-15T06:45:55;35.63;;;20.20;;
2542;SDS011;1116;51.502;7.414;2023-02-15T06:48:27;36.25;;;20.05;;
2542;SDS011;1116;51.502;7.414;2023-02-15T06:50:58;32.67;;;21.77;;
2542;SDS011;1116;51.502;7.414;2023-02-15T06:53:31;35.10;;;21.00;;
2542;SDS011;1116;51.502;7.414;2023-02-15T06:56:10;33.17;;;21.02;;
2542;SDS011;1116;51.502;7.414;2023-02-15T06:58:41;31.58;;;19.60;;
2542;SDS011;1116;51.502;7.414;2023-02-15T07:01:13;35.00;;;21.65;;
2542;SDS011;1116;51.502;7.414;2023-02-15T07:03:44;30.95;;;20.85;;
2542;SDS011;1116;51.502;7.414;2023-02-15T07:06:17;33.42;;;20.30;;
2542;SDS011;1116;51.502;7.414;2023-02-15T07:08:52;31.85;;;20.63;;
2542;SDS011;1116;51.502;7.414;2023-02-15T07:11:25;39.50;;;23.38;;
2542;SDS011;1116;51.502;7.414;2023-02-15T07:14:10;35.25;;;21.02;;
2542;SDS011;1116;51.502;7.414;2023-02-15T07:16:41;34.63;;;21.55;;
2542;SDS011;1116;51.502;7.414;2023-02-15T07:19:12;30.25;;;19.90;;
2542;SDS011;1116;51.502;7.414;2023-02-15T07:21:43;36.13;;;22.83;;
2542;SDS011;1116;51.502;7.414;2023-02-15T07:24:16;35.38;;;22.13;;
2542;SDS011;1116;51.502;7.414;2023-02-15T07:26:50;34.20;;;22.65;;
2542;SDS011;1116;51.502;7.414;2023-02-15T07:29:21;36.30;;;21.85;;
2542;SDS011;1116;51.502;7.414;2023-02-15T07:31:54;34.92;;;22.67;;
2542;SDS011;1116;51.502;7.414;2023-02-15T07:34:25;34.45;;;22.40;;
2542;SDS011;1116;51.502;7.414;2023-02-15T07:36:56;37.05;;;22.73;;
2542;SDS011;1116;51.502;7.414;2023-02-15T07:39:27;43.65;;;25.50;;
2542;SDS011;1116;51.502;7.414;2023-02-15T07:42:02;36.67;;;23.08;;
2542;SDS011;1116;51.502;7.414;2023-02-15T07:44:32;39.92;;;24.52;;
2542;SDS011;1116;51.502;7.414;2023-02-15T07:47:03;41.97;;;25.65;;
2542;SDS011;1116;51.502;7.414;2023-02-15T07:49:34;38.50;;;25.10;;
2542;SDS011;1116;51.502;7.414;2023-02-15T07:52:05;39.30;;;24.35;;
2542;SDS011;1116;51.502;7.414;2023-02-15T07:54:36;39.13;;;23.83;;
2542;SDS011;1116;51.502;7.414;2023-02-15T07:57:10;36.30;;;23.05;;
2542;SDS011;1116;51.502;7.414;2023-02-15T07:59:41;37.65;;;23.17;;
2542;SDS011;1116;51.502;7.414;2023-02-15T08:02:11;39.83;;;24.50;;
2542;SDS011;1116;51.502;7.414;2023-02-15T08:04:44;37.00;;;24.42;;
2542;SDS011;1116;51.502;7.414;2023-02-15T08:07:16;47.53;;;26.02;;
2542;SDS011;1116;51.502;7.414;2023-02-15T08:09:47;40.17;;;23.38;;
2542;SDS011;1116;51.502;7.414;2023-02-15T08:12:21;41.92;;;25.40;;
2542;SDS011;1116;51.502;7.414;2023-02-15T08:14:52;44.20;;;25.65;;
2542;SDS011;1116;51.502;7.414;2023-02-15T08:17:23;35.17;;;22.48;;
2542;SDS011;1116;51.502;7.414;2023-02-15T08:19:56;37.22;;;24.27;;
2542;SDS011;1116;51.502;7.414;2023-02-15T08:22:27;41.90;;;25.05;;
2542;SDS011;1116;51.502;7.414;2023-02-15T08:24:58;43.38;;;26.20;;
2542;SDS011;1116;51.502;7.414;2023-02-15T08:27:31;43.05;;;25.30;;
2542;SDS011;1116;51.502;7.414;2023-02-15T08:30:03;35.33;;;24.50;;
2542;SDS011;1116;51.502;7.414;2023-02-15T08:32:35;39.28;;;25.25;;
2542;SDS011;1116;51.502;7.414;2023-02-15T08:35:07;45.85;;;27.40;;
2542;SDS011;1116;51.502;7.414;2023-02-15T08:37:37;41.73;;;25.30;;
2542;SDS011;1116;51.502;7.414;2023-02-15T08:40:09;39.83;;;25.35;;
2542;SDS011;1116;51.502;7.414;2023-02-15T08:42:43;35.50;;;24.37;;
2542;SDS011;1116;51.502;7.414;2023-02-15T08:45:14;39.07;;;23.30;;
2542;SDS011;1116;51.502;7.414;2023-02-15T08:47:46;37.65;;;24.30;;
2542;SDS011;1116;51.502;7.414;2023-02-15T08:50:19;39.47;;;24.83;;
2542;SDS011;1116;51.502;7.414;2023-02-15T08:52:50;37.77;;;23.87;;
2542;SDS011;1116;51.502;7.414;2023-02-15T08:55:21;34.13;;;22.50;;
2542;SDS011;1116;51.502;7.414;2023-02-15T08:57:54;42.57;;;26.13;;
2542;SDS011;1116;51.502;7.414;2023-02-15T09:00:25;32.60;;;22.30;;
2542;SDS011;1116;51.502;7.414;2023-02-15T09:02:57;28.80;;;20.73;;
2542;SDS011;1116;51.502;7.414;2023-02-15T09:05:28;33.10;;;21.97;;
2542;SDS011;1116;51.502;7.414;2023-02-15T09:07:59;33.07;;;21.40;;
2542;SDS011;1116;51.502;7.414;2023-02-15T09:10:30;30.73;;;21.10;;
2542;SDS011;1116;51.502;7.414;2023-02-15T09:13:03;30.77;;;20.40;;
2542;SDS011;1116;51.502;7.414;2023-02-15T09:15:35;27.47;;;20.00;;
2542;SDS011;1116;51.502;7.414;2023-02-15T09:18:06;32.53;;;22.00;;
2542;SDS011;1116;51.502;7.414;2023-02-15T09:20:37;27.67;;;18.63;;
2542;SDS011;1116;51.502;7.414;2023-02-15T09:23:08;27.73;;;19.37;;
2542;SDS011;1116;51.502;7.414;2023-02-15T09:25:55;30.10;;;17.60;;
2542;SDS011;1116;51.502;7.414;2023-02-15T09:28:31;26.70;;;18.77;;
2542;SDS011;1116;51.502;7.414;2023-02-15T09:31:06;24.20;;;17.27;;
2542;SDS011;1116;51.502;7.414;2023-02-15T09:33:38;25.70;;;17.60;;
2542;SDS011;1116;51.502;7.414;2023-02-15T09:36:14;24.13;;;17.17;;
2542;SDS011;1116;51.502;7.414;2023-02-15T09:38:52;22.30;;;17.03;;
2542;SDS011;1116;51.502;7.414;2023-02-15T09:41:30;23.73;;;16.77;;
2542;SDS011;1116;51.502;7.414;2023-02-15T09:44:30;23.20;;;18.00;;
2542;SDS011;1116;51.502;7.414;2023-02-15T09:47:17;25.00;;;17.27;;
2542;SDS011;1116;51.502;7.414;2023-02-15T09:50:02;23.20;;;15.90;;
2542;SDS011;1116;51.502;7.414;2023-02-15T09:52:45;20.80;;;15.23;;
2542;SDS011;1116;51.502;7.414;2023-02-15T09:55:34;25.00;;;16.57;;
2542;SDS011;1116;51.502;7.414;2023-02-15T09:58:15;25.37;;;17.20;;
2542;SDS011;1116;51.502;7.414;2023-02-15T10:00:58;22.63;;;16.10;;
2542;SDS011;1116;51.502;7.414;2023-02-15T10:03:39;22.67;;;15.90;;
2542;SDS011;1116;51.502;7.414;2023-02-15T10:06:27;21.73;;;16.13;;
2542;SDS011;1116;51.502;7.414;2023-02-15T10:09:22;36.50;;;23.80;;
2542;SDS011;1116;51.502;7.414;2023-02-15T10:12:14;34.87;;;24.23;;
2542;SDS011;1116;51.502;7.414;2023-02-15T10:15:15;33.17;;;23.43;;
2542;SDS011;1116;51.502;7.414;2023-02-15T10:18:14;37.67;;;24.43;;
2542;SDS011;1116;51.502;7.414;2023-02-15T10:21:00;32.90;;;21.70;;
2542;SDS011;1116;51.502;7.414;2023-02-15T10:26:58;29.87;;;20.87;;
2542;SDS011;1116;51.502;7.414;2023-02-15T10:29:36;31.17;;;20.03;;
2542;SDS011;1116;51.502;7.414;2023-02-15T10:32:11;28.50;;;19.37;;
2542;SDS011;1116;51.502;7.414;2023-02-15T10:34:57;25.63;;;19.07;;
2542;SDS011;1116;51.502;7.414;2023-02-15T10:40:39;20.27;;;15.07;;
2542;SDS011;1116;51.502;7.414;2023-02-15T10:46:17;18.60;;;12.73;;
2542;SDS011;1116;51.502;7.414;2023-02-15T10:49:07;14.30;;;11.50;;
2542;SDS011;1116;51.502;7.414;2023-02-15T10:51:56;14.30;;;11.10;;
2542;SDS011;1116;51.502;7.414;2023-02-15T10:54:42;16.63;;;11.60;;
2542;SDS011;1116;51.502;7.414;2023-02-15T10:57:20;13.10;;;9.90;;
2542;SDS011;1116;51.502;7.414;2023-02-15T11:00:05;16.03;;;10.70;;
2542;SDS011;1116;51.502;7.414;2023-02-15T11:02:46;17.30;;;11.03;;
2542;SDS011;1116;51.502;7.414;2023-02-15T11:05:35;14.63;;;11.30;;
2542;SDS011;1116;51.502;7.414;2023-02-15T11:08:15;15.03;;;10.63;;
2542;SDS011;1116;51.502;7.414;2023-02-15T11:10:49;13.57;;;10.20;;
2542;SDS011;1116;51.502;7.414;2023-02-15T11:13:25;13.80;;;10.77;;
2542;SDS011;1116;51.502;7.414;2023-02-15T11:16:01;15.53;;;10.10;;
2542;SDS011;1116;51.502;7.414;2023-02-15T11:18:37;15.10;;;9.70;;
2542;SDS011;1116;51.502;7.414;2023-02-15T11:21:17;15.33;;;9.40;;
2542;SDS011;1116;51.502;7.414;2023-02-15T11:23:54;10.90;;;9.00;;
2542;SDS011;1116;51.502;7.414;2023-02-15T11:26:27;11.40;;;8.77;;
2542;SDS011;1116;51.502;7.414;2023-02-15T11:29:04;12.00;;;9.67;;
2542;SDS011;1116;51.502;7.414;2023-02-15T11:31:41;10.70;;;8.97;;
2542;SDS011;1116;51.502;7.414;2023-02-15T11:34:18;12.57;;;8.90;;
2542;SDS011;1116;51.502;7.414;2023-02-15T11:36:55;12.90;;;9.60;;
2542;SDS011;1116;51.502;7.414;2023-02-15T11:39:35;11.30;;;8.20;;
2542;SDS011;1116;51.502;7.414;2023-02-15T11:42:07;10.10;;;8.63;;
2542;SDS011;1116;51.502;7.414;2023-02-15T11:44:44;13.70;;;9.27;;
2542;SDS011;1116;51.502;7.414;2023-02-15T11:47:22;10.63;;;8.17;;
2542;SDS011;1116;51.502;7.414;2023-02-15T11:49:53;12.27;;;8.43;;
2542;SDS011;1116;51.502;7.414;2023-02-15T11:52:24;13.70;;;9.33;;
2542;SDS011;1116;51.502;7.414;2023-02-15T11:54:59;12.60;;;8.90;;
2542;SDS011;1116;51.502;7.414;2023-02-15T11:57:31;11.93;;;9.10;;
2542;SDS011;1116;51.502;7.414;2023-02-15T12:00:10;10.43;;;8.77;;
2542;SDS011;1116;51.502;7.414;2023-02-15T12:02:52;9.90;;;8.57;;
2542;SDS011;1116;51.502;7.414;2023-02-15T12:05:25;12.80;;;8.70;;
2542;SDS011;1116;51.502;7.414;2023-02-15T12:08:00;11.50;;;8.63;;
2542;SDS011;1116;51.502;7.414;2023-02-15T12:10:40;9.93;;;8.90;;
2542;SDS011;1116;51.502;7.414;2023-02-15T12:13:15;10.50;;;7.70;;
2542;SDS011;1116;51.502;7.414;2023-02-15T12:15:48;10.50;;;8.00;;
2542;SDS011;1116;51.502;7.414;2023-02-15T12:18:25;10.67;;;8.20;;
2542;SDS011;1116;51.502;7.414;2023-02-15T12:21:07;10.97;;;8.83;;
2542;SDS011;1116;51.502;7.414;2023-02-15T12:23:41;12.63;;;7.97;;
2542;SDS011;1116;51.502;7.414;2023-02-15T12:26:25;10.93;;;8.50;;
2542;SDS011;1116;51.502;7.414;2023-02-15T12:29:00;12.50;;;8.90;;
2542;SDS011;1116;51.502;7.414;2023-02-15T12:31:39;12.93;;;7.93;;
2542;SDS011;1116;51.502;7.414;2023-02-15T12:34:12;9.37;;;7.90;;
2542;SDS011;1116;51.502;7.414;2023-02-15T12:36:51;12.20;;;8.70;;
2542;SDS011;1116;51.502;7.414;2023-02-15T12:39:26;9.90;;;8.20;;
2542;SDS011;1116;51.502;7.414;2023-02-15T12:42:02;12.50;;;9.30;;
2542;SDS011;1116;51.502;7.414;2023-02-15T12:44:37;11.93;;;9.00;;
2542;SDS011;1116;51.502;7.414;2023-02-15T12:47:17;10.70;;;8.50;;
2542;SDS011;1116;51.502;7.414;2023-02-15T12:50:05;15.00;;;9.23;;
2542;SDS011;1116;51.502;7.414;2023-02-15T12:52:47;12.03;;;9.33;;
2542;SDS011;1116;51.502;7.414;2023-02-15T12:55:21;11.93;;;9.23;;
2542;SDS011;1116;51.502;7.414;2023-02-15T12:58:12;12.30;;;8.70;;
2542;SDS011;1116;51.502;7.414;2023-02-15T13:00:47;11.37;;;9.87;;
2542;SDS011;1116;51.502;7.414;2023-02-15T13:03:31;10.93;;;9.43;;
2542;SDS011;1116;51.502;7.414;2023-02-15T13:06:02;13.43;;;9.63;;
2542;SDS011;1116;51.502;7.414;2023-02-15T13:08:38;11.00;;;9.10;;
2542;SDS011;1116;51.502;7.414;2023-02-15T13:11:19;11.70;;;8.27;;
2542;SDS011;1116;51.502;7.414;2023-02-15T13:13:55;11.90;;;9.10;;
2542;SDS011;1116;51.502;7.414;2023-02-15T13:16:29;11.17;;;9.00;;
2542;SDS011;1116;51.502;7.414;2023-02-15T13:19:09;11.20;;;8.87;;
2542;SDS011;1116;51.502;7.414;2023-02-15T13:21:48;10.20;;;9.03;;
2542;SDS011;1116;51.502;7.414;2023-02-15T13:24:23;11.80;;;8.90;;
2542;SDS011;1116;51.502;7.414;2023-02-15T13:26:57;12.70;;;9.03;;
2542;SDS011;1116;51.502;7.414;2023-02-15T13:29:46;13.57;;;10.37;;
2542;SDS011;1116;51.502;7.414;2023-02-15T13:32:22;10.43;;;7.87;;
2542;SDS011;1116;51.502;7.414;2023-02-15T13:35:00;12.90;;;9.93;;
2542;SDS011;1116;51.502;7.414;2023-02-15T13:37:40;12.73;;;8.57;;
2542;SDS011;1116;51.502;7.414;2023-02-15T13:40:32;11.20;;;8.23;;
2542;SDS011;1116;51.502;7.414;2023-02-15T13:43:12;12.70;;;8.97;;
2542;SDS011;1116;51.502;7.414;2023-02-15T13:46:04;11.50;;;9.43;;
2542;SDS011;1116;51.502;7.414;2023-02-15T13:48:47;13.00;;;9.00;;
2542;SDS011;1116;51.502;7.414;2023-02-15T13:51:35;10.60;;;8.30;;
2542;SDS011;1116;51.502;7.414;2023-02-15T13:57:16;15.50;;;10.77;;
2542;SDS011;1116;51.502;7.414;2023-02-15T14:00:04;10.80;;;8.83;;
2542;SDS011;1116;51.502;7.414;2023-02-15T14:05:54;11.70;;;9.57;;
2542;SDS011;1116;51.502;7.414;2023-02-15T14:08:48;12.90;;;9.30;;
2542;SDS011;1116;51.502;7.414;2023-02-15T14:11:32;12.93;;;9.10;;
2542;SDS011;1116;51.502;7.414;2023-02-15T14:17:11;12.30;;;8.90;;
2542;SDS011;1116;51.502;7.414;2023-02-15T14:19:52;14.33;;;9.13;;
2542;SDS011;1116;51.502;7.414;2023-02-15T14:22:26;13.37;;;10.27;;
2542;SDS011;1116;51.502;7.414;2023-02-15T14:25:16;12.30;;;9.20;;
2542;SDS011;1116;51.502;7.414;2023-02-15T14:27:59;13.50;;;9.40;;
2542;SDS011;1116;51.502;7.414;2023-02-15T14:30:37;19.80;;;11.10;;
2542;SDS011;1116;51.502;7.414;2023-02-15T14:33:16;13.20;;;10.00;;
2542;SDS011;1116;51.502;7.414;2023-02-15T14:36:04;16.67;;;9.67;;
2542;SDS011;1116;51.502;7.414;2023-02-15T14:38:39;13.63;;;10.23;;
2542;SDS011;1116;51.502;7.414;2023-02-15T14:41:20;16.90;;;9.97;;
2542;SDS011;1116;51.502;7.414;2023-02-15T14:43:56;9.60;;;8.00;;
2542;SDS011;1116;51.502;7.414;2023-02-15T14:46:36;12.30;;;9.00;;
2542;SDS011;1116;51.502;7.414;2023-02-15T14:49:12;12.27;;;9.10;;
2542;SDS011;1116;51.502;7.414;2023-02-15T14:51:59;12.17;;;9.03;;
2542;SDS011;1116;51.502;7.414;2023-02-15T14:57:32;14.60;;;9.00;;
2542;SDS011;1116;51.502;7.414;2023-02-15T15:03:11;12.97;;;9.30;;
2542;SDS011;1116;51.502;7.414;2023-02-15T15:05:54;12.87;;;9.43;;
2542;SDS011;1116;51.502;7.414;2023-02-15T15:08:34;12.07;;;8.77;;
2542;SDS011;1116;51.502;7.414;2023-02-15T15:17:45;11.77;;;8.57;;
2542;SDS011;1116;51.502;7.414;2023-02-15T15:29:23;11.90;;;8.50;;
2542;SDS011;1116;51.502;7.414;2023-02-15T15:32:11;15.53;;;9.10;;
2542;SDS011;1116;51.502;7.414;2023-02-15T15:34:56;11.93;;;8.60;;
2542;SDS011;1116;51.502;7.414;2023-02-15T15:37:44;13.10;;;8.50;;
2542;SDS011;1116;51.502;7.414;2023-02-15T15:43:39;13.23;;;8.67;;
2542;SDS011;1116;51.502;7.414;2023-02-15T15:46:40;23.50;;;8.67;;
2542;SDS011;1116;51.502;7.414;2023-02-15T15:49:23;12.27;;;8.40;;
2542;SDS011;1116;51.502;7.414;2023-02-15T15:51:59;13.27;;;8.70;;
2542;SDS011;1116;51.502;7.414;2023-02-15T15:54:40;16.67;;;9.03;;
2542;SDS011;1116;51.502;7.414;2023-02-15T15:57:15;15.57;;;10.00;;
2542;SDS011;1116;51.502;7.414;2023-02-15T15:59:55;18.10;;;10.27;;
2542;SDS011;1116;51.502;7.414;2023-02-15T16:02:28;14.10;;;9.33;;
2542;SDS011;1116;51.502;7.414;2023-02-15T16:05:05;13.63;;;8.40;;
2542;SDS011;1116;51.502;7.414;2023-02-15T16:07:40;14.43;;;8.97;;
2542;SDS011;1116;51.502;7.414;2023-02-15T16:10:19;15.07;;;9.30;;
2542;SDS011;1116;51.502;7.414;2023-02-15T16:12:51;13.87;;;8.83;;
2542;SDS011;1116;51.502;7.414;2023-02-15T16:15:27;15.13;;;9.10;;
2542;SDS011;1116;51.502;7.414;2023-02-15T16:18:16;17.53;;;10.20;;
2542;SDS011;1116;51.502;7.414;2023-02-15T16:20:52;13.20;;;9.73;;
2542;SDS011;1116;51.502;7.414;2023-02-15T16:26:31;19.20;;;12.70;;
2542;SDS011;1116;51.502;7.414;2023-02-15T16:29:25;17.27;;;12.93;;
2542;SDS011;1116;51.502;7.414;2023-02-15T16:32:04;19.17;;;12.67;;
2542;SDS011;1116;51.502;7.414;2023-02-15T16:34:36;15.53;;;11.83;;
2542;SDS011;1116;51.502;7.414;2023-02-15T16:37:14;15.80;;;11.40;;
2542;SDS011;1116;51.502;7.414;2023-02-15T16:39:48;14.40;;;10.50;;